createdAt,value
2019-01-23T00:01:29.198Z,96577.05
2019-01-23T00:03:59.164Z,96567.67
2019-01-23T00:06:29.154Z,96571.05
2019-01-23T00:08:59.798Z,96566.97
2019-01-23T00:11:30.294Z,96563.17
2019-01-23T00:14:00.381Z,96568.09
2019-01-23T00:16:30.562Z,96553.50
2019-01-23T00:19:00.528Z,96558.05
2019-01-23T00:21:30.715Z,96553.19
2019-01-23T00:24:00.783Z,96550.52
2019-01-23T00:26:31.080Z,96553.61
2019-01-23T00:29:00.972Z,96545.88
2019-01-23T00:31:31.528Z,96541.73
2019-01-23T00:34:01.806Z,96539.89
2019-01-23T00:36:32.235Z,96532.04
2019-01-23T00:39:02.459Z,96527.41
2019-01-23T00:41:32.738Z,96526.70
2019-01-23T00:44:02.652Z,96521.11
2019-01-23T00:46:33.051Z,96520.59
2019-01-23T00:49:03.218Z,96517.87
2019-01-23T00:51:33.861Z,96514.40
2019-01-23T00:54:04.260Z,96515.22
2019-01-23T00:56:34.182Z,96512.09
2019-01-23T00:59:04.404Z,96511.29
2019-01-23T01:01:34.399Z,96507.03
2019-01-23T01:04:04.627Z,96508.26
2019-01-23T01:06:34.616Z,96495.34
2019-01-23T01:09:08.405Z,96495.28
2019-01-23T01:11:38.768Z,96491.89
2019-01-23T01:14:08.839Z,96490.38
2019-01-23T01:16:38.829Z,96492.34
2019-01-23T01:23:04.345Z,96489.37
2019-01-23T01:25:34.422Z,96483.77
2019-01-23T01:28:04.793Z,96478.69
2019-01-23T01:30:34.818Z,96476.66
2019-01-23T01:33:05.290Z,96474.91
2019-01-23T01:35:35.332Z,96468.68
2019-01-23T01:38:06.032Z,96466.43
2019-01-23T01:44:08.902Z,96461.69
2019-01-23T01:46:39.186Z,96458.55
2019-01-23T02:05:22.868Z,96435.86
2019-01-23T02:07:53.143Z,96444.33
2019-01-23T02:10:23.683Z,96434.63
2019-01-23T02:12:54.282Z,96433.97
2019-01-23T02:15:24.775Z,96430.05
2019-01-23T02:17:55.060Z,96431.95
2019-01-23T02:26:36.053Z,96420.20
2019-01-23T02:29:09.547Z,96413.67
2019-01-23T02:31:38.154Z,96408.59
2019-01-23T02:37:58.248Z,96403.35
2019-01-23T02:40:28.163Z,96400.55
2019-01-23T02:42:58.254Z,96392.72
2019-01-23T02:45:28.200Z,96391.38
2019-01-23T02:47:58.266Z,96380.22
2019-01-23T02:50:28.466Z,96382.71
2019-01-23T02:52:58.381Z,96372.08
2019-01-23T02:55:28.293Z,96373.68
2019-01-23T02:57:58.281Z,96363.80
2019-01-23T03:00:28.779Z,96364.55
2019-01-23T03:02:58.851Z,96359.95
2019-01-23T03:05:28.906Z,96351.56
2019-01-23T03:07:58.793Z,96348.70
2019-01-23T03:10:29.270Z,96342.01
2019-01-23T03:13:00.682Z,96339.06
2019-01-23T03:15:30.851Z,96335.89
2019-01-23T03:18:01.251Z,96332.23
2019-01-23T03:20:31.481Z,96334.50
2019-01-23T03:23:01.425Z,96325.72
2019-01-23T03:25:31.377Z,96319.77
2019-01-23T03:28:01.355Z,96321.52
2019-01-23T03:30:31.868Z,96322.81
2019-01-23T03:33:02.134Z,96317.91
2019-01-23T03:35:32.873Z,96317.56
2019-01-23T03:38:03.117Z,96316.98
2019-01-23T03:40:33.656Z,96315.08
2019-01-23T03:43:03.596Z,96317.45
2019-01-23T03:45:33.520Z,96320.50
2019-01-23T03:48:03.581Z,96316.53
2019-01-23T03:50:34.047Z,96317.44
2019-01-23T03:53:04.838Z,96317.83
2019-01-23T03:55:35.045Z,96315.65
2019-01-23T03:58:05.344Z,96314.80
2019-01-23T04:00:35.436Z,96306.50
2019-01-23T04:03:05.988Z,96304.95
2019-01-23T04:05:36.075Z,96301.48
2019-01-23T04:08:06.157Z,96298.16
2019-01-23T04:10:36.075Z,96297.95
2019-01-23T04:13:06.299Z,96295.33
2019-01-23T04:15:36.442Z,96290.45
2019-01-23T04:18:06.829Z,96293.36
2019-01-23T04:20:36.751Z,96291.66
2019-01-23T04:23:07.195Z,96284.46
2019-01-23T04:25:37.085Z,96283.89
2019-01-23T04:28:06.976Z,96281.21
2019-01-23T04:30:36.929Z,96279.27
2019-01-23T04:33:07.059Z,96281.24
2019-01-23T04:35:37.376Z,96278.09
2019-01-23T04:38:07.794Z,96273.05
2019-01-23T04:40:37.922Z,96260.67
2019-01-23T04:43:08.063Z,96265.69
2019-01-23T04:45:38.590Z,96261.38
2019-01-23T04:48:08.470Z,96256.29
2019-01-23T04:50:56.094Z,96246.81
2019-01-23T04:53:32.445Z,96250.52
2019-01-23T04:56:02.681Z,96247.59
2019-01-23T04:58:32.680Z,96241.66
2019-01-23T05:01:02.566Z,96238.62
2019-01-23T05:03:32.714Z,96236.39
2019-01-23T05:06:04.444Z,96236.88
2019-01-23T05:08:34.602Z,96231.69
2019-01-23T05:14:55.246Z,96231.47
2019-01-23T05:17:25.163Z,96235.77
2019-01-23T05:19:55.056Z,96230.16
2019-01-23T05:22:24.991Z,96236.21
2019-01-23T05:28:21.095Z,96230.55
2019-01-23T05:38:23.484Z,96228.81
2019-01-23T05:40:54.614Z,96223.65
2019-01-23T05:43:24.961Z,96218.96
2019-01-23T05:45:54.866Z,96217.86
2019-01-23T05:48:24.778Z,96212.64
2019-01-23T05:50:54.806Z,96213.92
2019-01-23T05:53:24.807Z,96215.32
2019-01-23T05:55:54.941Z,96212.96
2019-01-23T05:58:24.852Z,96217.70
2019-01-23T06:00:54.979Z,96212.70
2019-01-23T06:03:25.121Z,96215.20
2019-01-23T06:05:55.012Z,96214.68
2019-01-23T06:08:25.021Z,96210.16
2019-01-23T06:10:54.931Z,96211.30
2019-01-23T06:17:15.717Z,96210.94
2019-01-23T06:26:46.838Z,96211.56
2019-01-23T06:29:16.769Z,96211.22
2019-01-23T06:31:46.927Z,96216.73
2019-01-23T06:34:17.056Z,96210.58
2019-01-23T06:36:46.962Z,96208.50
2019-01-23T06:39:16.843Z,96205.56
2019-01-23T06:41:47.013Z,96204.13
2019-01-23T06:44:16.974Z,96206.42
2019-01-23T06:46:46.865Z,96208.11
2019-01-23T06:49:16.742Z,96211.71
2019-01-23T06:51:47.132Z,96201.97
2019-01-23T06:54:17.271Z,96199.70
2019-01-23T06:56:47.152Z,96193.77
2019-01-23T06:59:17.067Z,96198.61
2019-01-23T07:01:47.404Z,96200.94
2019-01-23T07:04:17.290Z,96199.59
2019-01-23T07:06:47.446Z,96200.02
2019-01-23T07:09:17.337Z,96196.38
2019-01-23T07:11:47.241Z,96200.90
2019-01-23T07:14:17.113Z,96198.93
2019-01-23T07:16:47.774Z,96199.10
2019-01-23T07:19:17.773Z,96196.06
2019-01-23T07:21:47.946Z,96190.55
2019-01-23T07:24:18.072Z,96189.22
2019-01-23T07:26:48.212Z,96189.47
2019-01-23T07:29:18.629Z,96186.81
2019-01-23T07:31:48.839Z,96187.33
2019-01-23T07:34:18.771Z,96188.36
2019-01-23T07:40:33.175Z,96192.27
2019-01-23T07:43:03.447Z,96185.27
2019-01-23T07:52:15.554Z,96188.22
2019-01-23T07:54:45.466Z,96183.69
2019-01-23T07:57:15.432Z,96187.86
2019-01-23T07:59:45.347Z,96184.20
2019-01-23T08:02:15.789Z,96182.87
2019-01-23T08:04:45.768Z,96183.47
2019-01-23T08:07:15.979Z,96188.31
2019-01-23T08:09:46.146Z,96178.73
2019-01-23T08:12:16.080Z,96179.34
2019-01-23T08:14:46.122Z,96174.34
2019-01-23T08:17:16.204Z,96176.95
2019-01-23T08:19:46.075Z,96169.09
2019-01-23T08:22:16.013Z,96178.27
2019-01-23T08:24:45.907Z,96172.14
2019-01-23T08:27:16.064Z,96173.91
2019-01-23T08:29:46.259Z,96166.91
2019-01-23T08:32:16.470Z,96166.91
2019-01-23T08:34:46.419Z,96169.37
2019-01-23T08:37:16.522Z,96175.65
2019-01-23T08:39:46.829Z,96168.17
2019-01-23T08:42:16.972Z,96169.59
2019-01-23T08:48:38.550Z,96167.34
2019-01-23T08:51:08.836Z,96162.76
2019-01-23T08:53:39.218Z,96165.77
2019-01-23T08:56:09.500Z,96160.09
2019-01-23T08:58:39.391Z,96164.12
2019-01-23T09:01:09.702Z,96155.80
2019-01-23T09:03:39.614Z,96154.17
2019-01-23T09:06:09.743Z,96156.09
2019-01-23T09:08:39.953Z,96150.61
2019-01-23T09:11:10.252Z,96151.00
2019-01-23T09:13:40.181Z,96155.76
2019-01-23T09:16:10.346Z,96151.05
2019-01-23T09:18:40.578Z,96147.04
2019-01-23T09:21:10.741Z,96149.19
2019-01-23T09:23:40.893Z,96154.95
2019-01-23T09:26:11.201Z,96149.84
2019-01-23T09:28:41.160Z,96149.39
2019-01-23T09:32:05.220Z,96155.12
2019-01-23T09:35:01.086Z,96153.46
2019-01-23T09:38:06.018Z,96150.23
2019-01-23T09:41:17.485Z,96156.09
2019-01-23T09:44:22.793Z,96151.34
2019-01-23T09:47:17.154Z,96154.89
2019-01-23T09:50:29.738Z,96148.84
2019-01-23T09:53:18.869Z,96152.37
2019-01-23T09:55:49.128Z,96148.17
2019-01-23T09:58:19.037Z,96140.91
2019-01-23T10:00:49.057Z,96146.41
2019-01-23T10:03:23.111Z,96144.41
2019-01-23T10:05:51.047Z,96144.45
2019-01-23T10:08:20.973Z,96136.25
2019-01-23T10:22:12.789Z,96133.88
2019-01-23T10:24:43.058Z,96121.42
2019-01-23T10:27:12.946Z,96127.70
2019-01-23T10:29:42.932Z,96124.93
2019-01-23T10:32:13.133Z,96128.83
2019-01-23T10:34:43.051Z,96131.50
2019-01-23T10:37:19.376Z,96123.39
2019-01-23T10:39:44.646Z,96122.75
2019-01-23T10:42:14.872Z,96121.20
2019-01-23T10:44:44.813Z,96121.14
2019-01-23T10:47:14.998Z,96117.34
2019-01-23T10:49:44.910Z,96114.04
2019-01-23T10:52:14.872Z,96114.75
2019-01-23T10:54:44.813Z,96110.38
2019-01-23T10:57:15.087Z,96103.73
2019-01-23T10:59:45.525Z,96108.30
2019-01-23T11:06:06.915Z,96099.26
2019-01-23T11:08:36.809Z,96101.90
2019-01-23T11:11:06.927Z,96101.73
2019-01-23T11:13:36.898Z,96102.38
2019-01-23T11:16:07.305Z,96101.59
2019-01-23T11:18:37.279Z,96102.41
2019-01-23T11:21:07.340Z,96104.55
2019-01-23T11:23:37.573Z,96095.06
2019-01-23T11:26:07.846Z,96104.92
2019-01-23T11:28:38.214Z,96090.60
2019-01-23T11:31:08.097Z,96095.46
2019-01-23T11:33:38.213Z,96091.76
2019-01-23T11:36:08.157Z,96084.76
2019-01-23T11:38:38.047Z,96082.04
2019-01-23T11:41:08.085Z,96072.08
2019-01-23T11:43:38.325Z,96077.13
2019-01-23T11:46:08.242Z,96075.97
2019-01-23T11:48:38.761Z,96074.91
2019-01-23T11:51:08.935Z,96082.58
2019-01-23T11:53:38.992Z,96078.95
2019-01-23T11:59:53.975Z,96078.91
2019-01-23T12:02:30.561Z,96080.88
2019-01-23T12:11:22.113Z,96072.44
2019-01-23T12:13:52.017Z,96073.61
2019-01-23T12:16:22.275Z,96066.95
2019-01-23T12:18:52.693Z,96061.31
2019-01-23T12:21:22.865Z,96068.02
2019-01-23T12:23:58.224Z,96066.69
2019-01-23T12:26:24.680Z,96066.24
2019-01-23T12:28:54.644Z,96061.44
2019-01-23T12:31:24.867Z,96057.27
2019-01-23T12:33:54.769Z,96059.23
2019-01-23T12:36:24.650Z,96056.41
2019-01-23T12:38:55.343Z,96049.83
2019-01-23T12:41:25.309Z,96054.07
2019-01-23T12:43:55.367Z,96056.53
2019-01-23T12:46:26.211Z,96054.30
2019-01-23T12:48:56.180Z,96055.56
2019-01-23T12:51:26.469Z,96050.79
2019-01-23T12:57:47.631Z,96047.06
2019-01-23T13:00:22.037Z,96050.67
2019-01-23T13:02:52.756Z,96048.50
2019-01-23T13:05:23.058Z,96042.38
2019-01-23T13:07:53.677Z,96042.00
2019-01-23T13:10:24.553Z,96038.84
2019-01-23T13:12:55.137Z,96043.67
2019-01-23T13:15:26.684Z,96048.53
2019-01-23T13:17:56.971Z,96051.63
2019-01-23T13:20:27.538Z,96048.36
2019-01-23T13:22:57.595Z,96047.97
2019-01-23T13:25:29.208Z,96039.63
2019-01-23T13:28:02.111Z,96047.25
2019-01-23T13:30:32.397Z,96048.51
2019-01-23T13:33:03.187Z,96053.84
2019-01-23T13:35:36.835Z,96051.61
2019-01-23T13:38:10.905Z,96055.88
2019-01-23T13:40:40.995Z,96053.94
2019-01-23T13:43:11.197Z,96059.84
2019-01-23T13:45:41.950Z,96055.01
2019-01-23T13:48:12.451Z,96058.77
2019-01-23T13:54:34.252Z,96062.84
2019-01-23T13:57:42.118Z,96062.38
2019-01-23T14:09:49.324Z,96067.34
2019-01-23T14:12:20.064Z,96076.41
2019-01-23T14:18:41.097Z,96079.33
2019-01-23T14:21:11.456Z,96086.57
2019-01-23T14:23:41.748Z,96083.09
2019-01-23T14:26:11.830Z,96088.84
2019-01-23T14:28:42.000Z,96086.77
2019-01-23T14:31:12.157Z,96085.58
2019-01-23T14:33:43.107Z,96087.27
2019-01-23T14:36:13.706Z,96089.27
2019-01-23T14:38:44.288Z,96091.98
2019-01-23T14:45:06.573Z,96100.27
2019-01-23T14:47:37.691Z,96102.20
2019-01-23T14:50:11.094Z,96101.91
2019-01-23T14:52:41.786Z,96105.75
2019-01-23T14:55:12.897Z,96113.24
2019-01-23T14:57:43.966Z,96112.30
2019-01-23T15:00:18.768Z,96109.23
2019-01-23T15:08:57.540Z,96119.42
2019-01-23T15:11:28.697Z,96123.56
2019-01-23T15:13:59.995Z,96120.09
2019-01-23T15:16:31.210Z,96116.78
2019-01-23T15:19:02.132Z,96116.09
2019-01-23T15:21:33.017Z,96124.98
2019-01-23T15:24:04.284Z,96125.90
2019-01-23T15:26:35.102Z,96127.02
2019-01-23T15:29:06.481Z,96124.91
2019-01-23T15:31:38.087Z,96129.90
2019-01-23T15:34:08.844Z,96128.17
2019-01-23T15:36:39.728Z,96131.06
2019-01-23T15:39:11.366Z,96136.36
2019-01-23T15:45:33.768Z,96132.84
2019-01-23T15:48:05.366Z,96140.52
2019-01-23T15:50:37.136Z,96147.58
2019-01-23T15:53:08.595Z,96147.45
2019-01-23T15:55:43.931Z,96154.80
2019-01-23T15:58:15.644Z,96160.72
2019-01-23T16:00:47.018Z,96160.11
2019-01-23T16:03:18.319Z,96163.69
2019-01-23T16:05:50.416Z,96167.43
2019-01-23T16:12:16.261Z,96172.12
2019-01-23T16:22:00.643Z,96176.84
2019-01-23T16:24:31.776Z,96183.34
2019-01-23T16:34:21.261Z,96196.48
2019-01-23T16:36:52.677Z,96198.21
2019-01-23T16:39:25.158Z,96197.91
2019-01-23T16:45:47.385Z,96200.70
2019-01-23T16:48:19.024Z,96193.34
2019-01-23T16:50:51.289Z,96198.19
2019-01-23T16:57:13.876Z,96202.08
2019-01-23T16:59:45.318Z,96215.20
2019-01-23T17:02:16.858Z,96217.83
2019-01-23T17:08:39.945Z,96216.79
2019-01-23T17:11:11.652Z,96225.98
2019-01-23T17:20:22.345Z,96234.70
2019-01-23T17:37:49.732Z,96257.50
2019-01-23T17:40:21.935Z,96253.59
2019-01-23T17:42:53.643Z,96263.75
2019-01-23T17:45:28.979Z,96267.95
2019-01-23T17:48:00.704Z,96263.73
2019-01-23T17:50:32.944Z,96265.30
2019-01-23T17:53:04.511Z,96272.94
2019-01-23T17:55:39.508Z,96270.61
2019-01-23T17:58:14.734Z,96271.85
2019-01-23T18:00:56.712Z,96273.70
2019-01-23T18:03:28.729Z,96280.56
2019-01-23T18:09:45.747Z,96287.41
2019-01-23T18:19:37.360Z,96293.03
2019-01-23T18:22:10.558Z,96299.60
2019-01-23T18:24:42.854Z,96298.36
2019-01-23T18:27:15.375Z,96304.75
2019-01-23T18:29:48.329Z,96308.35
2019-01-23T18:32:20.867Z,96308.96
2019-01-23T18:36:14.634Z,96307.86
2019-01-23T18:45:43.542Z,96318.11
2019-01-23T18:48:58.453Z,96312.53
2019-01-23T18:52:06.283Z,96327.02
2019-01-23T18:54:38.279Z,96323.23
2019-01-23T18:57:13.594Z,96330.14
2019-01-23T18:59:45.843Z,96333.24
2019-01-23T19:02:17.894Z,96337.62
2019-01-23T19:04:49.985Z,96343.58
2019-01-23T19:07:22.465Z,96347.59
2019-01-23T19:09:54.793Z,96347.15
2019-01-23T19:12:27.697Z,96346.66
2019-01-23T19:15:00.197Z,96352.89
2019-01-23T19:17:32.524Z,96358.83
2019-01-23T19:20:05.591Z,96358.83
2019-01-23T19:26:22.868Z,96368.80
2019-01-23T19:28:57.463Z,96369.44
2019-01-23T19:31:29.812Z,96369.27
2019-01-23T19:37:47.772Z,96377.91
2019-01-23T19:40:20.256Z,96375.28
2019-01-23T19:42:52.523Z,96373.59
2019-01-23T19:45:27.534Z,96380.56
2019-01-23T20:02:58.076Z,96401.47
2019-01-23T20:05:32.323Z,96399.88
2019-01-23T20:08:04.883Z,96404.77
2019-01-23T20:10:37.176Z,96398.70
2019-01-23T20:17:00.900Z,96403.63
2019-01-23T20:19:33.677Z,96412.34
2019-01-23T20:22:05.930Z,96411.74
2019-01-23T20:24:39.132Z,96414.55
2019-01-23T20:27:11.060Z,96419.39
2019-01-23T20:33:37.781Z,96422.92
2019-01-23T20:36:10.004Z,96417.98
2019-01-23T20:38:42.337Z,96424.52
2019-01-23T20:41:16.059Z,96428.73
2019-01-23T20:43:51.002Z,96432.52
2019-01-23T20:46:23.194Z,96436.73
2019-01-23T20:48:55.133Z,96438.75
2019-01-23T20:51:27.080Z,96445.11
2019-01-23T20:53:59.149Z,96436.46
2019-01-23T21:00:25.162Z,96446.27
2019-01-23T21:02:56.925Z,96450.89
2019-01-23T21:05:29.339Z,96456.77
2019-01-23T21:08:01.453Z,96456.02
2019-01-23T21:10:33.070Z,96460.77
2019-01-23T21:13:04.968Z,96462.66
2019-01-23T21:15:36.915Z,96461.75
2019-01-23T21:18:09.268Z,96468.75
2019-01-23T21:20:43.284Z,96473.41
2019-01-23T21:23:17.825Z,96470.92
2019-01-23T21:25:49.649Z,96475.28
2019-01-23T21:28:21.078Z,96476.69
2019-01-23T21:30:52.859Z,96474.79
2019-01-23T21:33:26.323Z,96477.77
2019-01-23T21:35:58.340Z,96479.14
2019-01-23T21:38:30.076Z,96479.90
2019-01-23T21:41:03.708Z,96493.69
2019-01-23T21:43:35.067Z,96490.14
2019-01-23T21:46:06.442Z,96498.48
2019-01-23T21:48:37.943Z,96494.65
2019-01-23T21:51:09.983Z,96494.05
2019-01-23T21:53:41.910Z,96498.26
2019-01-23T21:56:13.817Z,96490.04
2019-01-23T21:58:44.948Z,96505.91
2019-01-23T22:01:16.120Z,96504.70
2019-01-23T22:03:49.328Z,96502.70
2019-01-23T22:10:11.960Z,96505.39
2019-01-23T22:12:43.848Z,96504.89
2019-01-23T22:15:17.462Z,96506.63
2019-01-23T22:17:48.198Z,96510.98
2019-01-23T22:24:03.841Z,96517.92
2019-01-23T22:26:34.711Z,96526.17
2019-01-23T22:29:06.067Z,96530.28
2019-01-23T22:31:37.002Z,96531.23
2019-01-23T22:34:07.613Z,96530.66
2019-01-23T22:36:38.455Z,96536.50
2019-01-23T22:43:00.090Z,96541.37
2019-01-23T22:45:30.719Z,96542.41
2019-01-23T22:48:00.995Z,96547.48
2019-01-23T22:50:31.291Z,96552.09
2019-01-23T22:53:01.358Z,96548.50
2019-01-23T22:55:31.263Z,96553.12
2019-01-23T22:58:01.725Z,96557.20
2019-01-23T23:01:17.434Z,96558.46
2019-01-23T23:03:47.968Z,96566.01
2019-01-23T23:06:18.195Z,96568.58
2019-01-23T23:12:40.218Z,96563.75
2019-01-23T23:15:10.503Z,96577.16
2019-01-23T23:17:40.543Z,96579.48
2019-01-23T23:20:10.861Z,96575.52
2019-01-23T23:22:41.080Z,96585.90
2019-01-23T23:25:12.220Z,96586.72
2019-01-23T23:27:43.875Z,96584.42
2019-01-23T23:30:15.071Z,96590.98
2019-01-23T23:32:45.354Z,96596.47
2019-01-23T23:35:15.390Z,96590.17
2019-01-23T23:37:45.412Z,96601.84
2019-01-23T23:40:16.160Z,96610.05
2019-01-23T23:42:46.233Z,96606.70
2019-01-23T23:45:16.575Z,96605.27
2019-01-23T23:47:46.646Z,96617.98
2019-01-23T23:50:16.850Z,96622.38
2019-01-23T23:52:47.084Z,96625.91
2019-01-23T23:55:17.390Z,96633.48
2019-01-23T23:57:47.664Z,96640.14
